createdAt,value
2022-11-02T00:01:43.565Z,80.20
2022-11-02T00:04:11.286Z,80.10
2022-11-02T00:06:38.682Z,80.30
2022-11-02T00:09:05.961Z,80.50
2022-11-02T00:11:33.519Z,80.30
2022-11-02T00:14:00.766Z,80.30
2022-11-02T00:16:28.083Z,80.60
2022-11-02T00:18:59.383Z,80.10
2022-11-02T00:21:27.771Z,80.10
2022-11-02T00:23:58.542Z,80.10
2022-11-02T00:26:29.870Z,79.90
2022-11-02T00:28:58.120Z,79.90
2022-11-02T00:31:25.399Z,79.70
2022-11-02T00:33:52.887Z,79.80
2022-11-02T00:36:20.931Z,79.60
2022-11-02T00:38:48.190Z,79.50
2022-11-02T00:41:17.170Z,79.40
2022-11-02T00:43:44.432Z,79.40
2022-11-02T00:46:11.686Z,79.50
2022-11-02T00:48:38.959Z,79.50
2022-11-02T00:51:06.414Z,79.60
2022-11-02T00:53:33.685Z,80.20
2022-11-02T00:56:00.978Z,79.70
2022-11-02T00:58:28.238Z,79.70
2022-11-02T01:00:56.556Z,79.70
2022-11-02T01:03:25.094Z,79.70
2022-11-02T01:05:52.346Z,79.70
2022-11-02T01:08:19.605Z,79.80
2022-11-02T01:10:48.342Z,79.70
2022-11-02T01:13:16.318Z,80.00
2022-11-02T01:15:43.571Z,79.80
2022-11-02T01:18:10.847Z,79.80
2022-11-02T01:20:38.150Z,79.90
2022-11-02T01:23:05.476Z,79.90
2022-11-02T01:25:33.536Z,80.00
2022-11-02T01:28:02.010Z,79.70
2022-11-02T01:30:29.531Z,79.80
2022-11-02T01:32:56.797Z,79.90
2022-11-02T01:35:24.062Z,80.00
2022-11-02T01:37:51.326Z,80.20
2022-11-02T01:40:19.395Z,80.30
2022-11-02T01:42:46.668Z,80.40
2022-11-02T01:45:15.007Z,80.30
2022-11-02T01:47:49.212Z,80.20
2022-11-02T01:50:27.392Z,80.40
2022-11-02T01:52:54.982Z,80.40
2022-11-02T01:55:30.291Z,80.20
2022-11-02T01:58:10.666Z,80.20
2022-11-02T02:00:39.338Z,80.10
2022-11-02T02:03:19.183Z,80.00
2022-11-02T02:06:00.811Z,80.00
2022-11-02T02:08:29.504Z,80.00
2022-11-02T02:10:58.911Z,79.90
2022-11-02T02:13:28.486Z,80.20
2022-11-02T02:16:52.976Z,80.30
2022-11-02T02:20:07.949Z,80.30
2022-11-02T02:24:03.887Z,80.40
2022-11-02T02:27:35.542Z,80.70
2022-11-02T02:30:10.980Z,80.40
2022-11-02T02:33:14.061Z,80.20
2022-11-02T02:36:00.036Z,80.30
2022-11-02T02:39:04.014Z,80.30
2022-11-02T02:41:47.730Z,80.30
2022-11-02T02:44:23.891Z,80.30
2022-11-02T02:47:05.023Z,80.30
2022-11-02T02:49:53.438Z,80.60
2022-11-02T02:52:23.916Z,80.30
2022-11-02T02:54:55.907Z,80.20
2022-11-02T02:57:26.630Z,80.20
2022-11-02T02:59:55.112Z,80.30
2022-11-02T03:02:34.256Z,80.40
2022-11-02T03:05:01.826Z,81.00
2022-11-02T03:07:34.763Z,80.30
2022-11-02T03:10:22.474Z,80.40
2022-11-02T03:13:32.410Z,80.70
2022-11-02T03:16:49.487Z,80.80
2022-11-02T03:19:45.329Z,80.50
2022-11-02T03:23:07.408Z,80.50
2022-11-02T03:26:36.210Z,80.40
2022-11-02T03:29:33.686Z,80.50
2022-11-02T03:32:20.779Z,80.70
2022-11-02T03:35:02.572Z,80.70
2022-11-02T03:37:55.968Z,80.70
2022-11-02T03:40:40.583Z,80.60
2022-11-02T03:43:08.271Z,80.70
2022-11-02T03:45:54.197Z,81.40
2022-11-02T03:48:28.239Z,80.80
2022-11-02T03:50:58.191Z,80.70
2022-11-02T03:53:42.629Z,80.70
2022-11-02T03:56:23.007Z,80.80
2022-11-02T03:58:50.551Z,81.00
2022-11-02T04:01:20.780Z,81.00
2022-11-02T04:03:48.667Z,81.10
2022-11-02T04:06:17.215Z,81.00
2022-11-02T04:08:49.179Z,81.00
2022-11-02T04:11:35.426Z,81.30
2022-11-02T04:14:21.435Z,80.90
2022-11-02T04:16:48.707Z,81.70
2022-11-02T04:19:27.888Z,81.10
2022-11-02T04:22:16.634Z,81.20
2022-11-02T04:25:02.510Z,81.30
2022-11-02T04:27:29.818Z,81.50
2022-11-02T04:29:57.378Z,81.70
2022-11-02T04:32:43.425Z,81.60
2022-11-02T04:35:11.019Z,81.60
2022-11-02T04:38:03.213Z,81.50
2022-11-02T04:40:30.883Z,81.40
2022-11-02T04:42:58.138Z,81.20
2022-11-02T04:45:25.583Z,81.40
2022-11-02T04:47:52.966Z,81.30
2022-11-02T04:50:20.225Z,81.30
2022-11-02T04:52:47.519Z,81.50
2022-11-02T04:55:14.806Z,81.50
2022-11-02T04:57:45.891Z,81.60
2022-11-02T05:00:15.556Z,81.60
2022-11-02T05:02:43.929Z,81.50
2022-11-02T05:05:12.552Z,81.20
2022-11-02T05:07:39.919Z,81.20
2022-11-02T05:10:07.910Z,81.10
2022-11-02T05:12:35.210Z,81.50
2022-11-02T05:15:04.814Z,81.40
2022-11-02T05:17:32.190Z,81.50
2022-11-02T05:19:59.454Z,81.60
2022-11-02T05:22:26.727Z,82.50
2022-11-02T05:24:54.031Z,81.70
2022-11-02T05:27:21.386Z,81.60
2022-11-02T05:29:48.655Z,81.30
2022-11-02T05:32:15.915Z,81.70
2022-11-02T05:34:44.991Z,81.60
2022-11-02T05:37:12.267Z,81.60
2022-11-02T05:39:39.582Z,81.40
2022-11-02T05:42:06.879Z,81.00
2022-11-02T05:44:34.172Z,81.00
2022-11-02T05:47:01.613Z,81.20
2022-11-02T05:49:29.164Z,80.90
2022-11-02T05:51:56.447Z,80.70
2022-11-02T05:54:24.522Z,81.00
2022-11-02T05:56:51.787Z,81.50
2022-11-02T05:59:19.051Z,81.60
2022-11-02T06:01:46.450Z,81.70
2022-11-02T06:04:13.842Z,81.30
2022-11-02T06:06:42.615Z,81.10
2022-11-02T06:09:10.002Z,80.90
2022-11-02T06:11:37.305Z,80.90
2022-11-02T06:14:05.566Z,80.30
2022-11-02T06:16:32.871Z,79.60
2022-11-02T06:19:00.226Z,79.60
2022-11-02T06:21:28.323Z,80.30
2022-11-02T06:23:55.627Z,80.40
2022-11-02T06:26:22.890Z,80.60
2022-11-02T06:28:50.191Z,80.80
2022-11-02T06:31:17.489Z,81.10
2022-11-02T06:33:45.750Z,81.30
2022-11-02T06:36:14.727Z,81.80
2022-11-02T06:38:42.159Z,81.90
2022-11-02T06:41:10.335Z,81.90
2022-11-02T06:43:38.539Z,81.80
2022-11-02T06:46:06.317Z,81.60
2022-11-02T06:48:35.645Z,82.00
2022-11-02T06:51:06.234Z,82.00
2022-11-02T06:53:33.887Z,81.90
2022-11-02T06:56:01.399Z,81.80
2022-11-02T06:58:29.005Z,82.00
2022-11-02T07:01:09.954Z,81.90
2022-11-02T07:03:37.336Z,82.00
2022-11-02T07:06:08.417Z,81.30
2022-11-02T07:08:40.231Z,81.00
2022-11-02T07:11:07.511Z,81.20
2022-11-02T07:13:34.759Z,81.10
2022-11-02T07:16:02.046Z,81.00
2022-11-02T07:18:29.305Z,81.80
2022-11-02T07:20:59.884Z,81.50
2022-11-02T07:23:27.439Z,81.70
2022-11-02T07:25:54.838Z,81.70
2022-11-02T07:28:22.234Z,81.40
2022-11-02T07:30:50.365Z,81.30
2022-11-02T07:33:17.767Z,81.30
2022-11-02T07:35:45.088Z,81.00
2022-11-02T07:38:14.060Z,81.50
2022-11-02T07:40:41.445Z,80.90
2022-11-02T07:43:09.137Z,81.10
2022-11-02T07:45:36.763Z,80.40
2022-11-02T07:48:04.184Z,80.40
2022-11-02T07:50:31.448Z,80.30
2022-11-02T07:52:59.302Z,80.00
2022-11-02T07:55:30.883Z,79.70
2022-11-02T07:58:14.119Z,79.00
2022-11-02T08:00:42.616Z,78.40
2022-11-02T08:03:11.965Z,78.20
2022-11-02T08:05:43.169Z,77.20
2022-11-02T08:08:23.682Z,76.70
2022-11-02T08:10:52.647Z,76.90
2022-11-02T08:13:26.025Z,77.50
2022-11-02T08:15:54.900Z,75.80
2022-11-02T08:18:26.932Z,76.30
2022-11-02T08:20:58.662Z,76.80
2022-11-02T08:23:27.234Z,76.10
2022-11-02T08:25:55.578Z,76.20
2022-11-02T08:28:31.632Z,76.10
2022-11-02T08:30:59.742Z,76.50
2022-11-02T08:33:27.378Z,77.10
2022-11-02T08:35:54.818Z,75.00
2022-11-02T08:38:22.913Z,74.50
2022-11-02T08:40:50.253Z,74.20
2022-11-02T08:43:17.640Z,74.50
2022-11-02T08:46:14.384Z,74.40
2022-11-02T08:48:34.012Z,75.00
2022-11-02T08:51:01.380Z,75.60
2022-11-02T08:53:28.825Z,74.90
2022-11-02T08:55:59.346Z,74.40
2022-11-02T08:58:26.692Z,72.90
2022-11-02T09:00:55.121Z,72.90
2022-11-02T09:03:26.762Z,73.30
2022-11-02T09:06:00.998Z,72.20
2022-11-02T09:08:29.737Z,72.60
2022-11-02T09:11:04.642Z,71.50
2022-11-02T09:13:32.005Z,71.00
2022-11-02T09:16:00.530Z,70.40
2022-11-02T09:18:28.048Z,69.80
2022-11-02T09:20:55.837Z,69.80
2022-11-02T09:23:24.183Z,69.70
2022-11-02T09:25:51.537Z,69.30
2022-11-02T09:28:19.691Z,69.50
2022-11-02T09:30:47.204Z,69.90
2022-11-02T09:33:14.513Z,70.10
2022-11-02T09:35:49.079Z,69.10
2022-11-02T09:38:21.015Z,69.40
2022-11-02T09:40:59.479Z,68.30
2022-11-02T09:44:01.863Z,67.80
2022-11-02T09:46:40.288Z,68.40
2022-11-02T09:49:24.219Z,68.40
2022-11-02T09:51:56.825Z,68.40
2022-11-02T09:54:50.159Z,67.60
2022-11-02T09:57:32.999Z,67.90
2022-11-02T10:00:00.537Z,67.70
2022-11-02T10:03:12.461Z,68.10
2022-11-02T10:06:19.292Z,67.30
2022-11-02T10:09:16.408Z,67.20
2022-11-02T10:12:13.261Z,66.70
2022-11-02T10:15:17.168Z,67.20
2022-11-02T10:17:46.066Z,66.30
2022-11-02T10:20:50.932Z,66.90
2022-11-02T10:23:46.071Z,65.90
2022-11-02T10:26:33.921Z,65.80
2022-11-02T10:29:41.345Z,67.60
2022-11-02T10:32:14.483Z,67.50
2022-11-02T10:34:43.745Z,64.80
2022-11-02T10:38:17.276Z,64.60
2022-11-02T10:41:18.236Z,63.20
2022-11-02T10:44:27.894Z,63.60
2022-11-02T10:47:24.145Z,63.30
2022-11-02T10:50:44.657Z,63.60
2022-11-02T10:53:41.221Z,63.20
2022-11-02T10:56:32.076Z,63.30
2022-11-02T10:59:23.766Z,63.40
2022-11-02T11:01:57.796Z,63.80
2022-11-02T11:04:29.145Z,64.10
2022-11-02T11:07:04.510Z,64.70
2022-11-02T11:09:48.304Z,62.50
2022-11-02T11:12:37.419Z,63.30
2022-11-02T11:20:44.579Z,63.40
2022-11-02T11:23:25.753Z,61.70
2022-11-02T11:26:06.722Z,62.30
2022-11-02T11:28:57.939Z,61.90
2022-11-02T11:31:25.907Z,61.90
2022-11-02T11:34:00.254Z,61.20
2022-11-02T11:36:36.407Z,60.40
2022-11-02T11:39:29.533Z,59.40
2022-11-02T11:41:58.319Z,59.50
2022-11-02T11:44:26.321Z,58.00
2022-11-02T11:46:58.628Z,58.10
2022-11-02T11:50:08.074Z,58.10
2022-11-02T11:52:34.612Z,58.00
2022-11-02T11:55:28.140Z,57.10
2022-11-02T11:58:31.159Z,57.90
2022-11-02T12:01:14.529Z,56.50
2022-11-02T12:04:01.584Z,54.60
2022-11-02T12:06:58.132Z,54.50
2022-11-02T12:09:46.594Z,54.50
2022-11-02T12:13:01.057Z,54.00
2022-11-02T12:16:03.111Z,53.00
2022-11-02T12:19:33.857Z,52.90
2022-11-02T12:22:43.790Z,53.40
2022-11-02T12:25:46.912Z,51.60
2022-11-02T12:28:31.688Z,51.50
2022-11-02T12:31:40.176Z,50.70
2022-11-02T12:35:23.161Z,51.20
2022-11-02T12:38:51.128Z,50.10
2022-11-02T12:42:03.881Z,50.20
2022-11-02T12:45:22.687Z,49.50
2022-11-02T12:48:06.279Z,50.00
2022-11-02T12:51:24.555Z,49.70
2022-11-02T12:54:14.778Z,48.90
2022-11-02T12:56:54.512Z,49.10
2022-11-02T12:59:34.750Z,51.20
2022-11-02T13:02:55.066Z,48.70
2022-11-02T13:05:41.182Z,49.40
2022-11-02T13:08:25.296Z,49.90
2022-11-02T13:11:04.454Z,50.70
2022-11-02T13:13:44.233Z,51.40
2022-11-02T13:16:14.604Z,50.40
2022-11-02T13:18:55.175Z,51.20
2022-11-02T13:21:44.139Z,50.60
2022-11-02T13:24:23.915Z,51.50
2022-11-02T13:26:57.419Z,51.80
2022-11-02T13:29:50.786Z,51.60
2022-11-02T13:33:00.662Z,51.00
2022-11-02T13:35:38.177Z,52.30
2022-11-02T13:38:46.480Z,52.40
2022-11-02T13:42:06.519Z,52.40
2022-11-02T13:45:22.767Z,52.70
2022-11-02T13:48:24.991Z,53.20
2022-11-02T13:50:57.660Z,53.00
2022-11-02T13:53:45.123Z,54.20
2022-11-02T13:56:22.697Z,52.90
2022-11-02T13:59:03.948Z,52.50
2022-11-02T14:01:37.309Z,53.60
2022-11-02T14:04:10.414Z,52.50
2022-11-02T14:07:09.365Z,52.40
2022-11-02T14:09:42.850Z,52.00
2022-11-02T14:12:29.500Z,52.40
2022-11-02T14:15:15.429Z,52.40
2022-11-02T14:17:54.944Z,53.40
2022-11-02T14:20:47.334Z,53.60
2022-11-02T14:23:14.531Z,52.90
2022-11-02T14:25:53.874Z,53.00
2022-11-02T14:28:24.735Z,53.70
2022-11-02T14:31:06.256Z,53.20
2022-11-02T14:34:32.787Z,53.60
2022-11-02T14:37:48.562Z,53.80
2022-11-02T14:40:54.311Z,54.40
2022-11-02T14:44:20.574Z,55.00
2022-11-02T14:47:07.006Z,55.10
2022-11-02T14:49:57.021Z,54.90
2022-11-02T14:52:35.899Z,55.10
2022-11-02T14:55:28.213Z,55.10
2022-11-02T14:58:20.313Z,55.10
2022-11-02T15:00:50.653Z,54.70
2022-11-02T15:03:29.136Z,54.80
2022-11-02T15:06:25.504Z,54.70
2022-11-02T15:09:04.373Z,54.90
2022-11-02T15:12:02.611Z,55.00
2022-11-02T15:14:35.523Z,54.90
2022-11-02T15:17:24.203Z,54.80
2022-11-02T15:20:14.366Z,54.40
2022-11-02T15:22:54.752Z,55.10
2022-11-02T15:25:37.318Z,55.00
2022-11-02T15:28:22.419Z,55.60
2022-11-02T15:30:59.798Z,55.60
2022-11-02T15:33:44.224Z,55.80
2022-11-02T15:36:41.736Z,55.60
2022-11-02T15:39:12.662Z,55.60
2022-11-02T15:42:27.563Z,55.80
2022-11-02T15:45:56.593Z,56.10
2022-11-02T15:49:02.584Z,56.40
2022-11-02T15:52:10.925Z,56.40
2022-11-02T15:55:19.351Z,56.10
2022-11-02T15:58:39.782Z,56.40
2022-11-02T16:01:25.195Z,56.60
2022-11-02T16:04:07.066Z,56.60
2022-11-02T16:06:44.507Z,57.00
2022-11-02T16:09:39.374Z,57.10
2022-11-02T16:12:25.052Z,57.30
2022-11-02T16:15:20.388Z,57.50
2022-11-02T16:17:51.178Z,57.80
2022-11-02T16:20:34.081Z,57.80
2022-11-02T16:23:05.451Z,58.10
2022-11-02T16:25:44.756Z,58.30
2022-11-02T16:28:35.481Z,58.50
2022-11-02T16:31:25.110Z,59.00
2022-11-02T16:33:57.263Z,59.70
2022-11-02T16:36:35.204Z,59.30
2022-11-02T16:39:30.445Z,59.30
2022-11-02T16:42:00.588Z,59.40
2022-11-02T16:44:34.990Z,59.40
2022-11-02T16:47:08.303Z,59.60
2022-11-02T16:49:50.954Z,59.60
2022-11-02T16:52:38.598Z,60.00
2022-11-02T16:55:43.502Z,60.10
2022-11-02T16:58:22.600Z,60.60
2022-11-02T17:01:05.501Z,60.50
2022-11-02T17:03:34.783Z,60.70
2022-11-02T17:06:07.528Z,61.10
2022-11-02T17:08:39.151Z,61.40
2022-11-02T17:11:14.487Z,61.60
2022-11-02T17:13:56.911Z,62.00
2022-11-02T17:16:24.255Z,63.00
2022-11-02T17:18:51.590Z,63.00
2022-11-02T17:21:28.878Z,63.20
2022-11-02T17:23:59.117Z,63.20
2022-11-02T17:26:36.687Z,63.70
2022-11-02T17:29:26.549Z,63.90
2022-11-02T17:31:58.012Z,64.00
2022-11-02T17:34:25.576Z,64.30
2022-11-02T17:36:53.420Z,64.30
2022-11-02T17:39:21.210Z,64.50
2022-11-02T17:42:16.492Z,64.50
2022-11-02T17:44:47.704Z,64.90
2022-11-02T17:47:19.654Z,64.90
2022-11-02T17:49:46.982Z,65.40
2022-11-02T17:52:16.487Z,65.40
2022-11-02T17:54:43.965Z,65.90
2022-11-02T17:57:15.614Z,65.80
2022-11-02T17:59:42.935Z,66.10
2022-11-02T18:02:15.853Z,66.70
2022-11-02T18:07:30.917Z,67.30
2022-11-02T18:09:58.285Z,66.70
2022-11-02T18:12:25.543Z,67.10
2022-11-02T18:14:52.808Z,67.20
2022-11-02T18:17:20.099Z,67.30
2022-11-02T18:19:47.361Z,67.60
2022-11-02T18:22:15.552Z,68.20
2022-11-02T18:24:43.113Z,68.10
2022-11-02T18:27:10.373Z,68.10
2022-11-02T18:29:38.071Z,68.20
2022-11-02T18:32:05.491Z,68.40
2022-11-02T18:34:32.831Z,68.50
2022-11-02T18:37:00.306Z,68.90
2022-11-02T18:39:27.554Z,69.10
2022-11-02T18:41:54.853Z,69.40
2022-11-02T18:44:22.945Z,69.50
2022-11-02T18:46:50.202Z,69.90
2022-11-02T18:49:17.450Z,70.20
2022-11-02T18:51:45.741Z,70.30
2022-11-02T18:54:13.146Z,70.20
2022-11-02T18:56:40.431Z,70.40
2022-11-02T18:59:07.761Z,70.50
2022-11-02T19:01:35.322Z,70.30
2022-11-02T19:04:03.655Z,70.40
2022-11-02T19:06:54.098Z,70.70
2022-11-02T19:09:26.655Z,71.10
2022-11-02T19:12:16.344Z,71.00
2022-11-02T19:14:47.637Z,71.10
2022-11-02T19:17:15.560Z,71.40
2022-11-02T19:19:45.473Z,71.10
2022-11-02T19:22:23.406Z,71.20
2022-11-02T19:24:51.843Z,71.90
2022-11-02T19:27:25.456Z,71.90
2022-11-02T19:29:52.865Z,72.50
2022-11-02T19:32:21.138Z,72.50
2022-11-02T19:34:48.517Z,72.50
2022-11-02T19:37:15.788Z,72.40
2022-11-02T19:39:43.049Z,73.00
2022-11-02T19:42:10.649Z,73.00
2022-11-02T19:44:42.536Z,72.90
2022-11-02T19:47:14.178Z,73.20
2022-11-02T19:49:41.427Z,73.10
2022-11-02T19:52:10.511Z,73.30
2022-11-02T19:54:37.869Z,73.30
2022-11-02T19:57:05.118Z,73.40
2022-11-02T19:59:32.380Z,73.90
2022-11-02T20:02:00.488Z,73.50
2022-11-02T20:04:27.868Z,73.70
2022-11-02T20:06:55.194Z,73.80
2022-11-02T20:09:22.519Z,73.70
2022-11-02T20:11:49.948Z,74.00
2022-11-02T20:14:18.453Z,74.10
2022-11-02T20:16:58.348Z,73.90
2022-11-02T20:19:32.003Z,74.10
2022-11-02T20:21:59.270Z,74.40
2022-11-02T20:24:29.166Z,74.60
2022-11-02T20:27:02.608Z,74.50
2022-11-02T20:29:30.137Z,74.70
2022-11-02T20:31:57.383Z,74.60
2022-11-02T20:34:24.779Z,75.20
2022-11-02T20:36:52.113Z,75.30
2022-11-02T20:39:19.681Z,75.30
2022-11-02T20:41:47.940Z,75.20
2022-11-02T20:44:17.006Z,75.20
2022-11-02T20:46:52.790Z,75.30
2022-11-02T20:49:48.322Z,75.50
2022-11-02T20:52:10.853Z,75.20
2022-11-02T20:54:38.164Z,75.70
2022-11-02T20:57:06.013Z,75.30
2022-11-02T20:59:35.944Z,75.20
2022-11-02T21:02:03.310Z,75.10
2022-11-02T21:04:30.695Z,75.40
2022-11-02T21:06:57.971Z,75.40
2022-11-02T21:09:25.291Z,75.60
2022-11-02T21:12:11.187Z,75.50
2022-11-02T21:14:38.466Z,75.80
2022-11-02T21:17:07.427Z,75.70
2022-11-02T21:19:34.743Z,75.80
2022-11-02T21:22:02.550Z,75.90
2022-11-02T21:24:29.903Z,75.90
2022-11-02T21:26:58.265Z,75.90
2022-11-02T21:29:25.627Z,76.20
2022-11-02T21:31:52.958Z,76.30
2022-11-02T21:34:20.235Z,76.40
2022-11-02T21:36:48.717Z,76.50
2022-11-02T21:39:16.242Z,76.70
2022-11-02T21:41:43.762Z,76.60
2022-11-02T21:44:11.993Z,76.40
2022-11-02T21:46:39.280Z,76.50
2022-11-02T21:49:06.691Z,76.40
2022-11-02T21:51:34.798Z,76.70
2022-11-02T21:54:04.051Z,76.70
2022-11-02T21:56:32.006Z,76.70
2022-11-02T21:58:59.529Z,76.80
2022-11-02T22:01:49.426Z,76.90
2022-11-02T22:04:31.615Z,77.00
2022-11-02T22:07:02.024Z,77.20
2022-11-02T22:09:29.803Z,77.10
2022-11-02T22:12:16.024Z,77.20
2022-11-02T22:14:44.844Z,77.20
2022-11-02T22:17:43.122Z,77.40
2022-11-02T22:20:02.730Z,77.50
2022-11-02T22:22:30.104Z,77.50
2022-11-02T22:24:57.418Z,77.20
2022-11-02T22:27:24.726Z,77.40
2022-11-02T22:29:51.989Z,77.50
2022-11-02T22:32:19.255Z,77.50
2022-11-02T22:34:46.903Z,77.40
2022-11-02T22:37:32.843Z,77.30
2022-11-02T22:40:00.913Z,77.40
2022-11-02T22:42:28.176Z,77.20
2022-11-02T22:44:58.345Z,77.20
2022-11-02T22:47:25.624Z,77.20
2022-11-02T22:49:52.935Z,77.40
2022-11-02T22:52:20.219Z,77.50
2022-11-02T22:54:47.844Z,77.60
2022-11-02T22:57:15.175Z,77.60
2022-11-02T22:59:42.446Z,77.60
2022-11-02T23:02:10.559Z,77.50
2022-11-02T23:04:37.877Z,77.50
2022-11-02T23:07:05.151Z,77.50
2022-11-02T23:09:32.422Z,77.40
2022-11-02T23:11:59.675Z,77.70
2022-11-02T23:14:26.927Z,77.80
2022-11-02T23:16:54.420Z,77.90
2022-11-02T23:19:28.253Z,78.30
2022-11-02T23:22:32.051Z,78.20
2022-11-02T23:25:18.910Z,78.30
2022-11-02T23:28:16.667Z,78.30
2022-11-02T23:31:03.403Z,78.60
2022-11-02T23:33:37.011Z,78.40
2022-11-02T23:36:12.630Z,78.50
2022-11-02T23:39:03.102Z,78.60
2022-11-02T23:41:33.897Z,78.70
2022-11-02T23:44:18.847Z,78.80
2022-11-02T23:46:51.056Z,78.60
2022-11-02T23:49:19.296Z,78.50
2022-11-02T23:52:05.170Z,78.80
2022-11-02T23:54:51.132Z,79.10
2022-11-02T23:57:19.279Z,79.00
2022-11-02T23:59:46.530Z,79.00
